createdAt,value
2023-06-03T00:00:54.467Z,24.14
2023-06-03T00:03:56.931Z,24.10
2023-06-03T00:06:59.397Z,24.06
2023-06-03T00:10:01.566Z,24.02
2023-06-03T00:13:03.869Z,24.03
2023-06-03T00:16:06.607Z,23.99
2023-06-03T00:19:08.811Z,23.98
2023-06-03T00:22:11.543Z,23.95
2023-06-03T00:25:13.881Z,23.93
2023-06-03T00:28:16.279Z,23.89
2023-06-03T00:31:18.484Z,23.86
2023-06-03T00:34:20.794Z,23.80
2023-06-03T00:37:23.036Z,23.80
2023-06-03T00:40:25.395Z,23.76
2023-06-03T00:43:27.718Z,23.75
2023-06-03T00:46:32.090Z,23.72
2023-06-03T00:49:35.422Z,23.70
2023-06-03T00:52:38.832Z,23.61
2023-06-03T00:55:42.019Z,23.53
2023-06-03T00:58:44.475Z,23.51
2023-06-03T01:01:46.751Z,23.51
2023-06-03T01:04:49.472Z,23.49
2023-06-03T01:08:02.411Z,23.53
2023-06-03T01:11:14.102Z,23.49
2023-06-03T01:14:20.108Z,23.47
2023-06-03T01:17:25.998Z,23.37
2023-06-03T01:20:29.327Z,23.37
2023-06-03T01:23:35.006Z,23.36
2023-06-03T01:26:37.595Z,23.32
2023-06-03T01:29:43.737Z,23.26
2023-06-03T01:32:48.253Z,23.31
2023-06-03T01:35:53.741Z,23.26
2023-06-03T01:38:56.392Z,23.22
2023-06-03T01:41:58.744Z,23.19
2023-06-03T01:45:03.996Z,23.17
2023-06-03T01:48:06.549Z,23.15
2023-06-03T01:51:08.807Z,23.13
2023-06-03T01:54:11.037Z,23.10
2023-06-03T01:57:14.483Z,23.10
2023-06-03T02:00:17.649Z,23.07
2023-06-03T02:03:19.839Z,23.01
2023-06-03T02:06:22.079Z,22.88
2023-06-03T02:09:28.592Z,22.90
2023-06-03T02:12:30.899Z,22.85
2023-06-03T02:15:33.200Z,22.80
2023-06-03T02:18:36.108Z,22.75
2023-06-03T02:21:39.491Z,22.73
2023-06-03T02:24:42.139Z,22.72
2023-06-03T02:27:45.094Z,22.68
2023-06-03T02:30:48.176Z,22.71
2023-06-03T02:33:51.253Z,22.67
2023-06-03T02:36:53.646Z,22.67
2023-06-03T02:39:55.894Z,22.65
2023-06-03T02:42:59.607Z,22.62
2023-06-03T02:46:01.993Z,22.66
2023-06-03T02:49:05.988Z,22.50
2023-06-03T02:52:09.127Z,22.58
2023-06-03T02:55:11.398Z,22.58
2023-06-03T02:58:13.797Z,22.52
2023-06-03T03:01:16.325Z,22.50
2023-06-03T03:04:19.090Z,22.48
2023-06-03T03:07:21.691Z,22.43
2023-06-03T03:10:24.055Z,22.43
2023-06-03T03:13:26.370Z,22.35
2023-06-03T03:16:29.243Z,22.36
2023-06-03T03:19:35.383Z,22.38
2023-06-03T03:22:43.023Z,22.33
2023-06-03T03:25:46.611Z,22.36
2023-06-03T03:28:49.159Z,22.39
2023-06-03T03:31:54.517Z,22.57
2023-06-03T03:35:03.086Z,22.58
2023-06-03T03:38:06.550Z,22.57
2023-06-03T03:41:10.685Z,22.57
2023-06-03T03:44:13.301Z,22.66
2023-06-03T03:47:23.160Z,22.79
2023-06-03T03:50:42.602Z,22.89
2023-06-03T03:53:48.097Z,23.05
2023-06-03T03:56:59.166Z,23.27
2023-06-03T04:00:02.509Z,24.11
2023-06-03T04:03:06.884Z,24.58
2023-06-03T04:06:27.529Z,24.99
2023-06-03T04:09:29.798Z,25.17
2023-06-03T04:12:37.519Z,25.46
2023-06-03T04:15:41.455Z,25.45
2023-06-03T04:18:44.022Z,24.85
2023-06-03T04:21:47.073Z,24.46
2023-06-03T04:24:55.756Z,24.41
2023-06-03T04:27:58.134Z,24.49
2023-06-03T04:31:00.745Z,24.27
2023-06-03T04:34:03.752Z,24.22
2023-06-03T04:37:06.607Z,24.12
2023-06-03T04:40:12.381Z,24.01
2023-06-03T04:43:16.864Z,24.08
2023-06-03T04:46:19.384Z,23.99
2023-06-03T04:49:21.856Z,24.03
2023-06-03T04:52:24.577Z,24.01
2023-06-03T04:55:29.479Z,23.98
2023-06-03T04:58:32.367Z,23.96
2023-06-03T05:01:38.252Z,24.05
2023-06-03T05:04:45.901Z,24.02
2023-06-03T05:07:48.827Z,24.01
2023-06-03T05:10:51.238Z,24.00
2023-06-03T05:13:53.877Z,24.04
2023-06-03T05:16:56.116Z,24.05
2023-06-03T05:19:58.779Z,24.05
2023-06-03T05:23:01.107Z,24.07
2023-06-03T05:26:03.923Z,24.02
2023-06-03T05:29:06.334Z,24.06
2023-06-03T05:32:08.806Z,24.19
2023-06-03T05:35:11.574Z,24.22
2023-06-03T05:38:14.817Z,24.24
2023-06-03T05:41:17.976Z,24.34
2023-06-03T05:44:20.212Z,24.38
2023-06-03T05:47:22.648Z,24.43
2023-06-03T05:50:25.027Z,24.51
2023-06-03T05:53:29.393Z,24.49
2023-06-03T05:56:34.135Z,24.58
2023-06-03T05:59:37.104Z,24.67
2023-06-03T06:02:40.987Z,24.59
2023-06-03T06:05:43.684Z,24.70
2023-06-03T06:08:46.076Z,24.72
2023-06-03T06:11:48.431Z,24.78
2023-06-03T06:14:50.805Z,24.74
2023-06-03T06:17:53.609Z,24.80
2023-06-03T06:20:56.222Z,24.84
2023-06-03T06:23:59.291Z,24.81
2023-06-03T06:27:01.644Z,24.81
2023-06-03T06:30:04.594Z,24.90
2023-06-03T06:33:07.598Z,25.02
2023-06-03T06:36:33.711Z,25.03
2023-06-03T06:39:55.679Z,25.06
2023-06-03T06:43:22.354Z,25.17
2023-06-03T06:46:37.833Z,25.29
2023-06-03T06:49:40.174Z,25.23
2023-06-03T06:52:42.506Z,25.17
2023-06-03T06:55:47.422Z,25.18
2023-06-03T06:58:51.476Z,25.29
2023-06-03T07:01:54.103Z,25.35
2023-06-03T07:04:56.490Z,25.18
2023-06-03T07:08:14.837Z,25.16
2023-06-03T07:11:17.105Z,25.31
2023-06-03T07:14:32.068Z,25.40
2023-06-03T07:17:34.392Z,25.57
2023-06-03T07:20:41.225Z,25.42
2023-06-03T07:23:46.592Z,25.57
2023-06-03T07:26:48.896Z,25.52
2023-06-03T07:29:51.822Z,25.50
2023-06-03T07:32:59.866Z,25.51
2023-06-03T07:36:04.725Z,25.49
2023-06-03T07:39:16.168Z,25.50
2023-06-03T07:42:23.702Z,25.56
2023-06-03T07:45:47.501Z,25.62
2023-06-03T07:48:49.688Z,25.75
2023-06-03T07:51:53.233Z,25.72
2023-06-03T07:54:55.582Z,25.78
2023-06-03T07:57:57.787Z,25.81
2023-06-03T08:01:00.065Z,25.75
2023-06-03T08:04:05.131Z,25.73
2023-06-03T08:07:08.562Z,25.60
2023-06-03T08:10:19.202Z,25.50
2023-06-03T08:13:21.405Z,25.37
2023-06-03T08:16:23.684Z,25.46
2023-06-03T08:19:25.983Z,25.35
2023-06-03T08:22:42.462Z,25.41
2023-06-03T08:25:44.634Z,25.39
2023-06-03T08:28:47.453Z,25.40
2023-06-03T08:31:51.847Z,25.38
2023-06-03T08:34:54.091Z,25.35
2023-06-03T08:37:57.827Z,25.33
2023-06-03T08:41:00.503Z,25.49
2023-06-03T08:44:04.935Z,25.62
2023-06-03T08:47:14.820Z,25.73
2023-06-03T08:50:22.455Z,25.80
2023-06-03T08:53:25.037Z,25.95
2023-06-03T08:56:28.835Z,26.17
2023-06-03T08:59:32.769Z,26.23
2023-06-03T09:02:35.719Z,26.16
2023-06-03T09:05:38.986Z,26.29
2023-06-03T09:08:41.227Z,26.42
2023-06-03T09:11:46.080Z,26.39
2023-06-03T09:14:48.674Z,26.53
2023-06-03T09:17:50.979Z,26.54
2023-06-03T09:20:53.238Z,26.51
2023-06-03T09:23:55.779Z,26.47
2023-06-03T09:26:58.444Z,26.40
2023-06-03T09:30:05.048Z,26.23
2023-06-03T09:33:07.281Z,26.19
2023-06-03T09:36:11.568Z,26.08
2023-06-03T09:39:18.004Z,26.19
2023-06-03T09:42:20.380Z,26.05
2023-06-03T09:45:27.521Z,25.98
2023-06-03T09:48:31.240Z,26.09
2023-06-03T09:51:42.148Z,26.24
2023-06-03T09:54:48.105Z,26.24
2023-06-03T09:58:10.779Z,26.33
2023-06-03T10:01:13.106Z,26.47
2023-06-03T10:04:23.477Z,26.61
2023-06-03T10:07:26.146Z,26.73
2023-06-03T10:10:28.365Z,26.82
2023-06-03T10:13:30.649Z,26.91
2023-06-03T10:16:32.903Z,27.10
2023-06-03T10:19:36.614Z,27.21
2023-06-03T10:22:40.853Z,27.24
2023-06-03T10:25:44.935Z,27.28
2023-06-03T10:28:49.497Z,27.30
2023-06-03T10:31:54.718Z,27.26
2023-06-03T10:35:00.521Z,27.28
2023-06-03T10:38:05.291Z,27.22
2023-06-03T10:41:09.232Z,27.12
2023-06-03T10:44:11.387Z,27.01
2023-06-03T10:47:23.046Z,27.05
2023-06-03T10:51:02.737Z,26.99
2023-06-03T10:54:19.844Z,26.98
2023-06-03T10:57:27.257Z,26.93
2023-06-03T11:00:55.323Z,26.89
2023-06-03T11:04:04.167Z,27.01
2023-06-03T11:07:08.614Z,27.18
2023-06-03T11:10:40.689Z,27.22
2023-06-03T11:13:43.358Z,27.18
2023-06-03T11:16:57.591Z,27.13
2023-06-03T11:20:00.697Z,27.14
2023-06-03T11:23:03.141Z,27.11
2023-06-03T11:26:31.255Z,27.18
2023-06-03T11:29:48.345Z,27.38
2023-06-03T11:33:08.797Z,27.55
2023-06-03T11:36:48.780Z,27.74
2023-06-03T11:40:11.323Z,27.96
2023-06-03T11:43:14.100Z,28.11
2023-06-03T11:46:16.536Z,28.17
2023-06-03T11:49:19.422Z,28.14
2023-06-03T11:52:21.660Z,28.07
2023-06-03T11:55:28.350Z,28.04
2023-06-03T11:58:30.769Z,27.92
2023-06-03T12:01:33.247Z,28.01
2023-06-03T12:04:36.221Z,28.12
2023-06-03T12:07:38.969Z,28.31
2023-06-03T12:10:41.485Z,28.38
2023-06-03T12:13:43.763Z,28.43
2023-06-03T12:16:46.531Z,28.48
2023-06-03T12:19:51.169Z,28.69
2023-06-03T12:23:05.041Z,28.81
2023-06-03T12:26:07.527Z,28.84
2023-06-03T12:29:15.469Z,28.99
2023-06-03T12:32:18.420Z,28.89
2023-06-03T12:35:20.724Z,28.82
2023-06-03T12:38:23.124Z,28.70
2023-06-03T12:41:26.550Z,28.63
2023-06-03T12:44:29.020Z,28.71
2023-06-03T12:47:42.462Z,28.79
2023-06-03T12:50:46.103Z,28.94
2023-06-03T12:53:48.333Z,29.01
2023-06-03T12:56:50.488Z,29.11
2023-06-03T13:00:10.820Z,29.19
2023-06-03T13:03:13.501Z,29.34
2023-06-03T13:06:16.019Z,29.39
2023-06-03T13:09:18.185Z,29.53
2023-06-03T13:12:20.441Z,29.55
2023-06-03T13:15:22.841Z,29.50
2023-06-03T13:18:25.763Z,29.57
2023-06-03T13:21:28.042Z,29.68
2023-06-03T13:24:31.625Z,29.75
2023-06-03T13:27:36.459Z,29.80
2023-06-03T13:30:38.761Z,29.85
2023-06-03T13:33:41.021Z,29.96
2023-06-03T13:36:43.296Z,30.08
2023-06-03T13:39:45.678Z,30.27
2023-06-03T13:42:49.559Z,30.44
2023-06-03T13:45:51.821Z,30.62
2023-06-03T13:48:54.201Z,30.70
2023-06-03T13:51:56.448Z,30.88
2023-06-03T13:54:58.713Z,31.00
2023-06-03T13:58:00.960Z,31.07
2023-06-03T14:01:04.480Z,31.20
2023-06-03T14:04:07.794Z,31.21
2023-06-03T14:07:27.468Z,31.33
2023-06-03T14:10:29.736Z,31.33
2023-06-03T14:13:31.890Z,31.21
2023-06-03T14:16:34.156Z,31.24
2023-06-03T14:19:36.366Z,31.13
2023-06-03T14:22:38.638Z,31.04
2023-06-03T14:25:41.346Z,31.03
2023-06-03T14:28:43.490Z,30.93
2023-06-03T14:31:48.064Z,30.99
2023-06-03T14:34:50.763Z,30.95
2023-06-03T14:37:53.064Z,30.89
2023-06-03T14:40:55.357Z,31.01
2023-06-03T14:43:58.146Z,30.96
2023-06-03T14:47:00.466Z,30.93
2023-06-03T14:50:03.380Z,30.96
2023-06-03T14:53:06.547Z,30.88
2023-06-03T14:56:11.432Z,30.97
2023-06-03T14:59:13.660Z,30.98
2023-06-03T15:02:15.986Z,30.99
2023-06-03T15:05:18.349Z,30.99
2023-06-03T15:08:21.358Z,31.02
2023-06-03T15:11:26.774Z,31.02
2023-06-03T15:14:29.058Z,31.04
2023-06-03T15:17:31.373Z,31.03
2023-06-03T15:20:33.614Z,31.03
2023-06-03T15:23:35.920Z,31.11
2023-06-03T15:26:38.137Z,31.08
2023-06-03T15:29:41.605Z,31.07
2023-06-03T15:32:43.972Z,31.08
2023-06-03T15:35:46.238Z,31.19
2023-06-03T15:38:48.450Z,31.13
2023-06-03T15:41:50.831Z,31.15
2023-06-03T15:44:53.065Z,31.17
2023-06-03T15:47:55.346Z,31.13
2023-06-03T15:50:57.600Z,31.13
2023-06-03T15:53:59.827Z,31.09
2023-06-03T15:57:02.098Z,31.10
2023-06-03T16:00:05.288Z,31.09
2023-06-03T16:03:07.857Z,31.15
2023-06-03T16:06:10.333Z,31.10
2023-06-03T16:09:12.767Z,31.09
2023-06-03T16:12:15.408Z,31.13
2023-06-03T16:15:17.997Z,31.05
2023-06-03T16:18:20.277Z,31.10
2023-06-03T16:21:22.454Z,31.12
2023-06-03T16:24:24.676Z,31.14
2023-06-03T16:27:27.112Z,31.16
2023-06-03T16:30:29.813Z,31.19
2023-06-03T16:33:37.501Z,31.18
2023-06-03T16:36:43.275Z,31.10
2023-06-03T16:39:45.469Z,31.06
2023-06-03T16:42:47.652Z,31.00
2023-06-03T16:45:50.750Z,30.95
2023-06-03T16:48:53.010Z,31.03
2023-06-03T16:51:55.336Z,31.01
2023-06-03T16:54:57.489Z,30.95
2023-06-03T16:58:01.882Z,30.94
2023-06-03T17:01:04.325Z,30.87
2023-06-03T17:04:07.616Z,30.91
2023-06-03T17:07:09.880Z,30.81
2023-06-03T17:10:13.357Z,30.85
2023-06-03T17:13:18.591Z,30.80
2023-06-03T17:16:20.913Z,30.73
2023-06-03T17:19:23.211Z,30.71
2023-06-03T17:22:25.712Z,30.58
2023-06-03T17:25:30.932Z,30.45
2023-06-03T17:28:33.151Z,30.25
2023-06-03T17:31:35.475Z,30.03
2023-06-03T17:34:38.259Z,29.87
2023-06-03T17:37:40.496Z,29.65
2023-06-03T17:40:42.743Z,29.42
2023-06-03T17:43:44.985Z,29.21
2023-06-03T17:46:47.291Z,29.01
2023-06-03T17:49:50.662Z,28.75
2023-06-03T17:52:53.176Z,28.51
2023-06-03T17:55:56.691Z,28.36
2023-06-03T17:58:59.851Z,28.15
2023-06-03T18:02:02.964Z,28.00
2023-06-03T18:05:05.701Z,27.84
2023-06-03T18:08:08.088Z,27.69
2023-06-03T18:11:10.568Z,27.59
2023-06-03T18:14:12.971Z,27.42
2023-06-03T18:17:15.347Z,27.31
2023-06-03T18:20:17.593Z,27.14
2023-06-03T18:23:19.806Z,27.11
2023-06-03T18:26:28.635Z,27.03
2023-06-03T18:29:31.818Z,26.91
2023-06-03T18:32:36.256Z,26.84
2023-06-03T18:35:38.489Z,26.74
2023-06-03T18:38:40.684Z,26.62
2023-06-03T18:41:43.031Z,26.55
2023-06-03T18:44:45.345Z,26.44
2023-06-03T18:47:47.591Z,26.38
2023-06-03T18:50:49.807Z,26.28
2023-06-03T18:53:52.280Z,26.11
2023-06-03T18:56:54.676Z,26.13
2023-06-03T18:59:56.904Z,26.02
2023-06-03T19:03:00.675Z,25.93
2023-06-03T19:06:06.459Z,25.81
2023-06-03T19:09:08.787Z,25.75
2023-06-03T19:12:11.008Z,25.64
2023-06-03T19:15:13.653Z,25.62
2023-06-03T19:18:16.397Z,25.46
2023-06-03T19:21:18.607Z,25.45
2023-06-03T19:24:21.721Z,25.38
2023-06-03T19:27:23.987Z,25.27
2023-06-03T19:30:26.341Z,25.20
2023-06-03T19:33:28.515Z,25.08
2023-06-03T19:36:30.795Z,25.06
2023-06-03T19:39:33.503Z,24.97
2023-06-03T19:42:35.736Z,24.94
2023-06-03T19:45:38.005Z,24.80
2023-06-03T19:48:40.244Z,24.78
2023-06-03T19:51:42.463Z,24.76
2023-06-03T19:54:44.647Z,24.63
2023-06-03T19:57:47.007Z,24.56
2023-06-03T20:00:49.313Z,24.57
2023-06-03T20:03:51.768Z,24.58
2023-06-03T20:06:54.068Z,24.44
2023-06-03T20:09:56.231Z,24.42
2023-06-03T20:12:58.446Z,24.41
2023-06-03T20:16:00.830Z,24.34
2023-06-03T20:19:03.028Z,24.26
2023-06-03T20:22:06.149Z,24.18
2023-06-03T20:25:08.609Z,24.13
2023-06-03T20:28:13.174Z,23.99
2023-06-03T20:31:15.671Z,23.98
2023-06-03T20:34:17.896Z,24.01
2023-06-03T20:37:20.386Z,23.90
2023-06-03T20:40:25.628Z,23.83
2023-06-03T20:43:27.968Z,23.74
2023-06-03T20:46:30.468Z,23.72
2023-06-03T20:49:32.755Z,23.81
2023-06-03T20:52:34.958Z,23.73
2023-06-03T20:55:37.128Z,23.78
2023-06-03T20:58:39.356Z,23.69
2023-06-03T21:01:41.589Z,23.67
2023-06-03T21:04:43.869Z,23.70
2023-06-03T21:07:46.120Z,23.68
2023-06-03T21:10:48.384Z,23.64
2023-06-03T21:13:50.892Z,23.70
2023-06-03T21:16:53.128Z,23.68
2023-06-03T21:19:55.358Z,23.61
2023-06-03T21:22:57.556Z,23.53
2023-06-03T21:26:01.388Z,23.57
2023-06-03T21:29:05.127Z,23.51
2023-06-03T21:32:07.859Z,23.36
2023-06-03T21:35:10.681Z,23.38
2023-06-03T21:38:12.878Z,23.26
2023-06-03T21:41:15.109Z,23.32
2023-06-03T21:44:17.649Z,23.28
2023-06-03T21:47:21.877Z,23.24
2023-06-03T21:50:24.179Z,23.22
2023-06-03T21:53:26.970Z,23.18
2023-06-03T21:56:30.231Z,23.17
2023-06-03T21:59:32.436Z,23.12
2023-06-03T22:02:34.667Z,23.03
2023-06-03T22:05:37.604Z,22.91
2023-06-03T22:08:39.842Z,22.91
2023-06-03T22:11:42.027Z,22.95
2023-06-03T22:14:44.255Z,22.91
2023-06-03T22:17:46.489Z,22.85
2023-06-03T22:20:50.873Z,22.85
2023-06-03T22:23:54.624Z,22.81
2023-06-03T22:26:56.932Z,22.83
2023-06-03T22:29:59.272Z,22.70
2023-06-03T22:33:01.552Z,22.73
2023-06-03T22:36:03.896Z,22.73
2023-06-03T22:39:06.567Z,22.72
2023-06-03T22:42:08.995Z,22.62
2023-06-03T22:45:11.509Z,22.60
2023-06-03T22:48:14.262Z,22.68
2023-06-03T22:51:16.520Z,22.71
2023-06-03T22:54:18.746Z,22.62
2023-06-03T22:57:21.545Z,22.68
2023-06-03T23:00:23.756Z,22.64
2023-06-03T23:03:26.025Z,22.69
2023-06-03T23:06:28.311Z,22.66
2023-06-03T23:09:30.656Z,22.65
2023-06-03T23:12:42.019Z,22.61
2023-06-03T23:15:44.201Z,22.59
2023-06-03T23:18:46.414Z,22.48
2023-06-03T23:21:48.578Z,22.58
2023-06-03T23:24:50.789Z,22.64
2023-06-03T23:27:52.988Z,22.64
2023-06-03T23:30:55.155Z,22.52
2023-06-03T23:33:57.605Z,22.62
2023-06-03T23:36:59.865Z,22.62
2023-06-03T23:40:02.204Z,22.66
2023-06-03T23:43:04.442Z,22.65
2023-06-03T23:46:06.712Z,22.54
2023-06-03T23:49:09.179Z,22.41
2023-06-03T23:52:11.465Z,22.36
2023-06-03T23:55:14.958Z,22.39
2023-06-03T23:58:17.301Z,22.35
